Marola — IBFL — position and weather

sailwx.info

Track history (hours):
 
Tides and Currents Weather Stations Pressure Air Temp Water Temp Dewpoint Dewpoint Depression Visibility Wind Speed Wind Dir Waves Ship Positions

Marola

Last reported at 2014-Oct-14 03:04 UTC. Time now 2014-Oct-21 13:30 UTC.
Position N 27°22' W 083°03'.

Length 180 m; draft 7.6 m.

Type: Ship. MMSI: 247094900.

Date/timePositionNaut miles runAvg speedWind from/ knotsBaromVisibWave heightAir tempDewpointWater temp
2014-Oct-14 03:04N 27°22' W 083°03'815.5
2014-Oct-14 02:33N 27°30' W 083°02'1211.8
2014-Oct-14 01:34N 27°36' W 082°50'1312.9
2014-Oct-14 00:33N 27°40' W 082°36'1312.7
2014-Oct-13 23:33N 27°49' W 082°27'5 5.1
2014-Oct-13 22:32N 27°54' W 082°25'0 0.0
2014-Oct-13 21:32N 27°54' W 082°25'0 0.0
2014-Oct-13 20:32N 27°54' W 082°25'0 0.0
2014-Oct-13 19:32N 27°54' W 082°25'0 0.0
2014-Oct-13 18:32N 27°54' W 082°25'0 0.0
2014-Oct-13 17:29N 27°54' W 082°25'0 0.0
2014-Oct-13 16:32N 27°54' W 082°25'0 0.0
2014-Oct-13 15:32N 27°54' W 082°25'0 0.0
2014-Oct-13 14:33N 27°54' W 082°25'0 0.0
2014-Oct-13 13:33N 27°54' W 082°25'0 0.0
2014-Oct-13 12:33N 27°54' W 082°25'0 0.0
2014-Oct-13 11:33N 27°54' W 082°25'0 0.0
2014-Oct-13 10:33N 27°54' W 082°25'0 0.0
2014-Oct-13 09:33N 27°54' W 082°25'0 0.0
2014-Oct-13 08:33N 27°54' W 082°25'0 0.0
2014-Oct-13 07:33N 27°54' W 082°25'0 0.0
2014-Oct-13 06:33N 27°54' W 082°25'0 0.0
2014-Oct-13 05:33N 27°54' W 082°25'0 0.0
2014-Oct-13 04:33N 27°54' W 082°25'0 0.0
2014-Oct-13 03:33N 27°54' W 082°25'0 0.0
2014-Oct-13 02:33N 27°54' W 082°25'0 0.0
2014-Oct-13 01:33N 27°54' W 082°25'0 0.0
2014-Oct-13 00:33N 27°54' W 082°25'0 0.0
2014-Oct-12 23:33N 27°54' W 082°25'0 0.0
2014-Oct-12 22:33N 27°54' W 082°25'0 0.0
2014-Oct-12 21:33N 27°54' W 082°25'0 0.0
2014-Oct-12 20:33N 27°54' W 082°25'0 0.0
2014-Oct-12 19:33N 27°54' W 082°25'0 0.0
2014-Oct-12 18:33N 27°54' W 082°25'0 0.0
2014-Oct-12 17:33N 27°54' W 082°25'0 0.2
2014-Oct-12 16:33N 27°54' W 082°26'5 5.3
2014-Oct-12 15:33N 27°49' W 082°27'1111.3
2014-Oct-12 14:33N 27°41' W 082°35'1111.2
2014-Oct-12 13:33N 27°37' W 082°47'1211.6
2014-Oct-12 12:33N 27°35' W 083°00'6 5.8
2014-Oct-12 11:33N 27°30' W 083°04'8 7.9
2014-Oct-12 10:32N 27°22' W 083°03'1915.7
2014-Oct-12 09:20N 27°04' W 083°04'1915.9
2014-Oct-12 08:09N 26°45' W 083°05'  
Track history (hours):
 
Tides and Currents Weather Stations Pressure Air Temp Water Temp Dewpoint Dewpoint Depression Visibility Wind Speed Wind Dir Waves Ship Positions

Marola

Last reported at 2014-Oct-14 03:04 UTC. Time now 2014-Oct-21 13:30 UTC.
Position N 27°22' W 083°03'.

Length 180 m; draft 7.6 m.

Type: Ship. MMSI: 247094900.

Date/timePositionNaut miles runAvg speedWind from/ knotsBaromVisibWave heightAir tempDewpointWater temp
2014-Oct-14 03:04N 27°22' W 083°03'815.5
2014-Oct-14 02:33N 27°30' W 083°02'1211.8
2014-Oct-14 01:34N 27°36' W 082°50'1312.9
2014-Oct-14 00:33N 27°40' W 082°36'1312.7
2014-Oct-13 23:33N 27°49' W 082°27'5 5.1
2014-Oct-13 22:32N 27°54' W 082°25'0 0.0
2014-Oct-13 21:32N 27°54' W 082°25'0 0.0
2014-Oct-13 20:32N 27°54' W 082°25'0 0.0
2014-Oct-13 19:32N 27°54' W 082°25'0 0.0
2014-Oct-13 18:32N 27°54' W 082°25'0 0.0
2014-Oct-13 17:29N 27°54' W 082°25'0 0.0
2014-Oct-13 16:32N 27°54' W 082°25'0 0.0
2014-Oct-13 15:32N 27°54' W 082°25'0 0.0
2014-Oct-13 14:33N 27°54' W 082°25'0 0.0
2014-Oct-13 13:33N 27°54' W 082°25'0 0.0
2014-Oct-13 12:33N 27°54' W 082°25'0 0.0
2014-Oct-13 11:33N 27°54' W 082°25'0 0.0
2014-Oct-13 10:33N 27°54' W 082°25'0 0.0
2014-Oct-13 09:33N 27°54' W 082°25'0 0.0
2014-Oct-13 08:33N 27°54' W 082°25'0 0.0
2014-Oct-13 07:33N 27°54' W 082°25'0 0.0
2014-Oct-13 06:33N 27°54' W 082°25'0 0.0
2014-Oct-13 05:33N 27°54' W 082°25'0 0.0
2014-Oct-13 04:33N 27°54' W 082°25'0 0.0
2014-Oct-13 03:33N 27°54' W 082°25'0 0.0
2014-Oct-13 02:33N 27°54' W 082°25'0 0.0
2014-Oct-13 01:33N 27°54' W 082°25'0 0.0
2014-Oct-13 00:33N 27°54' W 082°25'0 0.0
2014-Oct-12 23:33N 27°54' W 082°25'0 0.0
2014-Oct-12 22:33N 27°54' W 082°25'0 0.0
2014-Oct-12 21:33N 27°54' W 082°25'0 0.0
2014-Oct-12 20:33N 27°54' W 082°25'0 0.0
2014-Oct-12 19:33N 27°54' W 082°25'0 0.0
2014-Oct-12 18:33N 27°54' W 082°25'0 0.0
2014-Oct-12 17:33N 27°54' W 082°25'0 0.2
2014-Oct-12 16:33N 27°54' W 082°26'5 5.3
2014-Oct-12 15:33N 27°49' W 082°27'1111.3
2014-Oct-12 14:33N 27°41' W 082°35'1111.2
2014-Oct-12 13:33N 27°37' W 082°47'1211.6
2014-Oct-12 12:33N 27°35' W 083°00'6 5.8
2014-Oct-12 11:33N 27°30' W 083°04'8 7.9
2014-Oct-12 10:32N 27°22' W 083°03'1915.7
2014-Oct-12 09:20N 27°04' W 083°04'1915.9
2014-Oct-12 08:09N 26°45' W 083°05'  

Dump ship's entire track history